sensor_id;sensor_type;location;lat;lon;timestamp;temperature;humidity
24217;DHT22;12356;49.386;8.688;2023-08-17T00:02:15;20.90;84.70
24217;DHT22;12356;49.386;8.688;2023-08-17T00:04:46;20.80;83.90
24217;DHT22;12356;49.386;8.688;2023-08-17T00:07:16;20.80;84.70
24217;DHT22;12356;49.386;8.688;2023-08-17T00:09:47;20.80;84.70
24217;DHT22;12356;49.386;8.688;2023-08-17T00:12:18;20.80;84.60
24217;DHT22;12356;49.386;8.688;2023-08-17T00:14:48;20.80;84.00
24217;DHT22;12356;49.386;8.688;2023-08-17T00:17:19;20.80;84.70
24217;DHT22;12356;49.386;8.688;2023-08-17T00:19:50;20.80;84.70
24217;DHT22;12356;49.386;8.688;2023-08-17T00:22:20;20.70;85.10
24217;DHT22;12356;49.386;8.688;2023-08-17T00:24:51;20.70;86.30
24217;DHT22;12356;49.386;8.688;2023-08-17T00:27:21;20.80;86.30
24217;DHT22;12356;49.386;8.688;2023-08-17T00:29:52;20.80;86.30
24217;DHT22;12356;49.386;8.688;2023-08-17T00:32:23;20.80;86.30
24217;DHT22;12356;49.386;8.688;2023-08-17T00:34:54;20.80;86.30
24217;DHT22;12356;49.386;8.688;2023-08-17T00:37:24;20.80;87.00
24217;DHT22;12356;49.386;8.688;2023-08-17T00:39:55;20.80;86.80
24217;DHT22;12356;49.386;8.688;2023-08-17T00:42:25;20.90;86.70
24217;DHT22;12356;49.386;8.688;2023-08-17T00:44:56;20.90;86.70
24217;DHT22;12356;49.386;8.688;2023-08-17T00:47:27;20.80;86.00
24217;DHT22;12356;49.386;8.688;2023-08-17T00:49:59;20.80;86.20
24217;DHT22;12356;49.386;8.688;2023-08-17T00:52:31;20.80;85.30
24217;DHT22;12356;49.386;8.688;2023-08-17T00:55:02;20.80;85.10
24217;DHT22;12356;49.386;8.688;2023-08-17T00:57:33;20.80;85.10
24217;DHT22;12356;49.386;8.688;2023-08-17T01:00:04;20.80;84.70
24217;DHT22;12356;49.386;8.688;2023-08-17T01:02:35;20.80;84.70
24217;DHT22;12356;49.386;8.688;2023-08-17T01:05:06;20.90;84.80
24217;DHT22;12356;49.386;8.688;2023-08-17T01:07:37;20.80;84.10
24217;DHT22;12356;49.386;8.688;2023-08-17T01:10:08;20.80;84.40
24217;DHT22;12356;49.386;8.688;2023-08-17T01:15:21;20.80;83.60
24217;DHT22;12356;49.386;8.688;2023-08-17T01:20:39;20.80;84.00
24217;DHT22;12356;49.386;8.688;2023-08-17T01:23:10;20.90;84.00
24217;DHT22;12356;49.386;8.688;2023-08-17T01:25:41;20.80;83.90
24217;DHT22;12356;49.386;8.688;2023-08-17T01:28:11;20.70;84.20
24217;DHT22;12356;49.386;8.688;2023-08-17T01:30:53;20.70;84.60
24217;DHT22;12356;49.386;8.688;2023-08-17T01:33:42;20.60;85.40
24217;DHT22;12356;49.386;8.688;2023-08-17T01:36:25;20.50;85.70
24217;DHT22;12356;49.386;8.688;2023-08-17T01:38:57;20.50;86.10
24217;DHT22;12356;49.386;8.688;2023-08-17T01:41:30;20.60;86.50
24217;DHT22;12356;49.386;8.688;2023-08-17T01:44:02;20.60;85.80
24217;DHT22;12356;49.386;8.688;2023-08-17T01:46:33;20.60;84.60
24217;DHT22;12356;49.386;8.688;2023-08-17T01:49:04;20.60;84.50
24217;DHT22;12356;49.386;8.688;2023-08-17T01:51:34;20.60;84.50
24217;DHT22;12356;49.386;8.688;2023-08-17T01:54:05;20.50;84.20
24217;DHT22;12356;49.386;8.688;2023-08-17T01:56:36;20.50;84.10
24217;DHT22;12356;49.386;8.688;2023-08-17T01:59:06;20.40;84.40
24217;DHT22;12356;49.386;8.688;2023-08-17T02:01:37;20.40;85.50
24217;DHT22;12356;49.386;8.688;2023-08-17T02:04:07;20.50;85.30
24217;DHT22;12356;49.386;8.688;2023-08-17T02:06:38;20.50;84.40
24217;DHT22;12356;49.386;8.688;2023-08-17T02:09:09;20.50;84.40
24217;DHT22;12356;49.386;8.688;2023-08-17T02:11:39;20.50;84.40
24217;DHT22;12356;49.386;8.688;2023-08-17T02:14:10;20.50;84.40
24217;DHT22;12356;49.386;8.688;2023-08-17T02:16:40;20.50;84.30
24217;DHT22;12356;49.386;8.688;2023-08-17T02:19:11;20.50;83.50
24217;DHT22;12356;49.386;8.688;2023-08-17T02:21:41;20.40;83.30
24217;DHT22;12356;49.386;8.688;2023-08-17T02:24:12;20.50;83.10
24217;DHT22;12356;49.386;8.688;2023-08-17T02:26:42;20.40;82.40
24217;DHT22;12356;49.386;8.688;2023-08-17T02:29:13;20.30;83.00
24217;DHT22;12356;49.386;8.688;2023-08-17T02:31:43;20.30;83.40
24217;DHT22;12356;49.386;8.688;2023-08-17T02:34:14;20.20;83.50
24217;DHT22;12356;49.386;8.688;2023-08-17T02:36:44;20.20;84.10
24217;DHT22;12356;49.386;8.688;2023-08-17T02:39:15;20.10;84.30
24217;DHT22;12356;49.386;8.688;2023-08-17T02:41:45;20.10;85.20
24217;DHT22;12356;49.386;8.688;2023-08-17T02:44:20;20.20;84.40
24217;DHT22;12356;49.386;8.688;2023-08-17T02:46:50;20.20;84.80
24217;DHT22;12356;49.386;8.688;2023-08-17T02:49:21;20.20;84.20
24217;DHT22;12356;49.386;8.688;2023-08-17T02:51:51;20.20;84.20
24217;DHT22;12356;49.386;8.688;2023-08-17T02:54:22;20.20;84.20
24217;DHT22;12356;49.386;8.688;2023-08-17T02:56:53;20.20;84.20
24217;DHT22;12356;49.386;8.688;2023-08-17T02:59:23;20.20;84.20
24217;DHT22;12356;49.386;8.688;2023-08-17T03:01:54;20.10;84.10
24217;DHT22;12356;49.386;8.688;2023-08-17T03:04:25;20.20;84.20
24217;DHT22;12356;49.386;8.688;2023-08-17T03:06:55;20.10;83.80
24217;DHT22;12356;49.386;8.688;2023-08-17T03:09:26;20.00;83.80
24217;DHT22;12356;49.386;8.688;2023-08-17T03:11:56;20.00;84.00
24217;DHT22;12356;49.386;8.688;2023-08-17T03:14:27;20.00;84.00
24217;DHT22;12356;49.386;8.688;2023-08-17T03:16:57;20.10;84.00
24217;DHT22;12356;49.386;8.688;2023-08-17T03:19:28;20.10;83.20
24217;DHT22;12356;49.386;8.688;2023-08-17T03:21:58;20.20;82.70
24217;DHT22;12356;49.386;8.688;2023-08-17T03:24:29;20.20;82.00
24217;DHT22;12356;49.386;8.688;2023-08-17T03:26:59;20.20;81.40
24217;DHT22;12356;49.386;8.688;2023-08-17T03:29:30;20.20;81.50
24217;DHT22;12356;49.386;8.688;2023-08-17T03:32:01;20.20;81.20
24217;DHT22;12356;49.386;8.688;2023-08-17T03:34:31;20.20;81.40
24217;DHT22;12356;49.386;8.688;2023-08-17T03:37:03;20.20;81.80
24217;DHT22;12356;49.386;8.688;2023-08-17T03:39:33;20.20;81.60
24217;DHT22;12356;49.386;8.688;2023-08-17T03:42:04;20.20;81.70
24217;DHT22;12356;49.386;8.688;2023-08-17T03:44:35;20.20;81.20
24217;DHT22;12356;49.386;8.688;2023-08-17T03:47:05;20.00;81.10
24217;DHT22;12356;49.386;8.688;2023-08-17T03:49:36;20.00;81.80
24217;DHT22;12356;49.386;8.688;2023-08-17T03:52:06;20.00;82.30
24217;DHT22;12356;49.386;8.688;2023-08-17T03:54:37;20.10;82.10
24217;DHT22;12356;49.386;8.688;2023-08-17T03:57:07;20.00;81.40
24217;DHT22;12356;49.386;8.688;2023-08-17T03:59:38;20.00;81.30
24217;DHT22;12356;49.386;8.688;2023-08-17T04:02:09;20.00;81.40
24217;DHT22;12356;49.386;8.688;2023-08-17T04:04:39;20.10;81.00
24217;DHT22;12356;49.386;8.688;2023-08-17T04:07:10;20.10;80.10
24217;DHT22;12356;49.386;8.688;2023-08-17T04:09:43;20.10;79.20
24217;DHT22;12356;49.386;8.688;2023-08-17T04:12:15;20.10;78.20
24217;DHT22;12356;49.386;8.688;2023-08-17T04:14:46;20.00;78.50
24217;DHT22;12356;49.386;8.688;2023-08-17T04:17:17;20.00;78.70
24217;DHT22;12356;49.386;8.688;2023-08-17T04:19:47;19.90;79.10
24217;DHT22;12356;49.386;8.688;2023-08-17T04:22:18;19.80;80.10
24217;DHT22;12356;49.386;8.688;2023-08-17T04:24:48;19.90;80.50
24217;DHT22;12356;49.386;8.688;2023-08-17T04:27:19;19.90;80.60
24217;DHT22;12356;49.386;8.688;2023-08-17T04:29:49;19.90;80.40
24217;DHT22;12356;49.386;8.688;2023-08-17T04:32:20;20.00;80.00
24217;DHT22;12356;49.386;8.688;2023-08-17T04:34:50;20.00;79.00
24217;DHT22;12356;49.386;8.688;2023-08-17T04:37:21;20.00;78.10
24217;DHT22;12356;49.386;8.688;2023-08-17T04:39:52;20.00;78.10
24217;DHT22;12356;49.386;8.688;2023-08-17T04:42:23;20.10;78.20
24217;DHT22;12356;49.386;8.688;2023-08-17T04:44:55;19.90;78.30
24217;DHT22;12356;49.386;8.688;2023-08-17T04:47:25;19.90;79.40
24217;DHT22;12356;49.386;8.688;2023-08-17T04:49:56;19.90;80.10
24217;DHT22;12356;49.386;8.688;2023-08-17T04:52:26;19.90;80.60
24217;DHT22;12356;49.386;8.688;2023-08-17T04:54:57;19.90;80.80
24217;DHT22;12356;49.386;8.688;2023-08-17T04:57:27;19.90;80.60
24217;DHT22;12356;49.386;8.688;2023-08-17T04:59:58;19.90;80.80
24217;DHT22;12356;49.386;8.688;2023-08-17T05:02:29;19.90;81.00
24217;DHT22;12356;49.386;8.688;2023-08-17T05:04:59;20.00;80.80
24217;DHT22;12356;49.386;8.688;2023-08-17T05:07:30;20.00;80.60
24217;DHT22;12356;49.386;8.688;2023-08-17T05:10:01;19.90;80.60
24217;DHT22;12356;49.386;8.688;2023-08-17T05:12:31;19.90;81.70
24217;DHT22;12356;49.386;8.688;2023-08-17T05:15:02;19.90;81.40
24217;DHT22;12356;49.386;8.688;2023-08-17T05:17:33;19.90;81.80
24217;DHT22;12356;49.386;8.688;2023-08-17T05:20:04;19.90;82.20
24217;DHT22;12356;49.386;8.688;2023-08-17T05:22:35;19.90;82.60
24217;DHT22;12356;49.386;8.688;2023-08-17T05:25:06;19.90;83.00
24217;DHT22;12356;49.386;8.688;2023-08-17T05:27:37;19.90;83.20
24217;DHT22;12356;49.386;8.688;2023-08-17T05:30:08;19.90;82.80
24217;DHT22;12356;49.386;8.688;2023-08-17T05:32:40;19.80;83.30
24217;DHT22;12356;49.386;8.688;2023-08-17T05:35:11;19.90;84.00
24217;DHT22;12356;49.386;8.688;2023-08-17T05:37:41;19.90;84.30
24217;DHT22;12356;49.386;8.688;2023-08-17T05:40:12;19.90;84.30
24217;DHT22;12356;49.386;8.688;2023-08-17T05:42:43;19.90;83.90
24217;DHT22;12356;49.386;8.688;2023-08-17T05:45:13;20.00;84.00
24217;DHT22;12356;49.386;8.688;2023-08-17T05:47:44;20.00;83.40
24217;DHT22;12356;49.386;8.688;2023-08-17T05:50:15;20.00;83.00
24217;DHT22;12356;49.386;8.688;2023-08-17T05:52:46;20.10;82.60
24217;DHT22;12356;49.386;8.688;2023-08-17T05:55:17;20.10;82.90
24217;DHT22;12356;49.386;8.688;2023-08-17T05:57:47;20.10;83.00
24217;DHT22;12356;49.386;8.688;2023-08-17T06:00:18;20.10;83.10
24217;DHT22;12356;49.386;8.688;2023-08-17T06:02:49;20.00;84.00
24217;DHT22;12356;49.386;8.688;2023-08-17T06:05:23;20.10;84.80
24217;DHT22;12356;49.386;8.688;2023-08-17T06:07:56;20.10;83.30
24217;DHT22;12356;49.386;8.688;2023-08-17T06:10:27;20.10;82.70
24217;DHT22;12356;49.386;8.688;2023-08-17T06:12:57;20.10;83.60
24217;DHT22;12356;49.386;8.688;2023-08-17T06:15:28;20.10;83.20
24217;DHT22;12356;49.386;8.688;2023-08-17T06:17:59;20.10;82.90
24217;DHT22;12356;49.386;8.688;2023-08-17T06:20:29;20.10;83.10
24217;DHT22;12356;49.386;8.688;2023-08-17T06:23:00;20.10;82.90
24217;DHT22;12356;49.386;8.688;2023-08-17T06:25:30;20.10;83.50
24217;DHT22;12356;49.386;8.688;2023-08-17T06:28:02;20.10;83.10
24217;DHT22;12356;49.386;8.688;2023-08-17T06:30:32;20.20;83.30
24217;DHT22;12356;49.386;8.688;2023-08-17T06:33:03;20.20;82.80
24217;DHT22;12356;49.386;8.688;2023-08-17T06:35:35;20.20;82.20
24217;DHT22;12356;49.386;8.688;2023-08-17T06:38:06;20.20;81.50
24217;DHT22;12356;49.386;8.688;2023-08-17T06:40:36;20.20;81.80
24217;DHT22;12356;49.386;8.688;2023-08-17T06:43:07;20.20;81.20
24217;DHT22;12356;49.386;8.688;2023-08-17T06:45:37;20.20;80.70
24217;DHT22;12356;49.386;8.688;2023-08-17T06:48:08;20.20;80.20
24217;DHT22;12356;49.386;8.688;2023-08-17T06:50:39;20.20;81.30
24217;DHT22;12356;49.386;8.688;2023-08-17T06:53:09;20.10;82.00
24217;DHT22;12356;49.386;8.688;2023-08-17T06:55:40;20.10;81.60
24217;DHT22;12356;49.386;8.688;2023-08-17T06:58:10;20.10;82.20
24217;DHT22;12356;49.386;8.688;2023-08-17T07:00:41;20.10;82.50
24217;DHT22;12356;49.386;8.688;2023-08-17T07:03:12;20.10;81.60
24217;DHT22;12356;49.386;8.688;2023-08-17T07:05:42;20.10;82.10
24217;DHT22;12356;49.386;8.688;2023-08-17T07:08:13;20.20;82.20
24217;DHT22;12356;49.386;8.688;2023-08-17T07:10:43;20.20;79.60
24217;DHT22;12356;49.386;8.688;2023-08-17T07:13:14;20.20;80.00
24217;DHT22;12356;49.386;8.688;2023-08-17T07:15:45;20.20;80.80
24217;DHT22;12356;49.386;8.688;2023-08-17T07:18:15;20.20;81.60
24217;DHT22;12356;49.386;8.688;2023-08-17T07:20:46;20.20;82.00
24217;DHT22;12356;49.386;8.688;2023-08-17T07:23:17;20.20;81.70
24217;DHT22;12356;49.386;8.688;2023-08-17T07:25:48;20.20;80.70
24217;DHT22;12356;49.386;8.688;2023-08-17T07:28:19;20.20;81.00
24217;DHT22;12356;49.386;8.688;2023-08-17T07:30:49;20.20;80.80
24217;DHT22;12356;49.386;8.688;2023-08-17T07:33:20;20.20;80.80
24217;DHT22;12356;49.386;8.688;2023-08-17T07:35:50;20.20;80.70
24217;DHT22;12356;49.386;8.688;2023-08-17T07:38:21;20.20;80.70
24217;DHT22;12356;49.386;8.688;2023-08-17T07:40:52;20.20;80.40
24217;DHT22;12356;49.386;8.688;2023-08-17T07:43:23;20.20;81.10
24217;DHT22;12356;49.386;8.688;2023-08-17T07:45:55;20.20;82.60
24217;DHT22;12356;49.386;8.688;2023-08-17T07:48:25;20.20;81.90
24217;DHT22;12356;49.386;8.688;2023-08-17T07:50:56;20.20;81.50
24217;DHT22;12356;49.386;8.688;2023-08-17T07:53:26;20.20;80.70
24217;DHT22;12356;49.386;8.688;2023-08-17T07:55:57;20.20;81.40
24217;DHT22;12356;49.386;8.688;2023-08-17T07:58:27;20.30;81.10
24217;DHT22;12356;49.386;8.688;2023-08-17T08:00:58;20.30;80.70
24217;DHT22;12356;49.386;8.688;2023-08-17T08:03:28;20.30;80.50
24217;DHT22;12356;49.386;8.688;2023-08-17T08:05:59;20.40;80.60
24217;DHT22;12356;49.386;8.688;2023-08-17T08:08:29;20.50;80.90
24217;DHT22;12356;49.386;8.688;2023-08-17T08:11:00;20.60;81.30
24217;DHT22;12356;49.386;8.688;2023-08-17T08:13:31;20.60;80.20
24217;DHT22;12356;49.386;8.688;2023-08-17T08:16:02;20.60;80.70
24217;DHT22;12356;49.386;8.688;2023-08-17T08:18:32;20.70;79.30
24217;DHT22;12356;49.386;8.688;2023-08-17T08:21:03;20.60;79.50
24217;DHT22;12356;49.386;8.688;2023-08-17T08:23:33;20.60;78.10
24217;DHT22;12356;49.386;8.688;2023-08-17T08:26:04;20.60;78.40
24217;DHT22;12356;49.386;8.688;2023-08-17T08:28:34;20.70;79.30
24217;DHT22;12356;49.386;8.688;2023-08-17T08:31:06;20.70;79.30
24217;DHT22;12356;49.386;8.688;2023-08-17T08:33:36;20.80;79.40
24217;DHT22;12356;49.386;8.688;2023-08-17T08:36:07;20.80;77.50
24217;DHT22;12356;49.386;8.688;2023-08-17T08:38:37;20.80;77.20
24217;DHT22;12356;49.386;8.688;2023-08-17T08:41:08;20.80;77.70
24217;DHT22;12356;49.386;8.688;2023-08-17T08:43:39;20.80;78.70
24217;DHT22;12356;49.386;8.688;2023-08-17T08:46:11;20.80;78.00
24217;DHT22;12356;49.386;8.688;2023-08-17T08:48:42;20.80;77.60
24217;DHT22;12356;49.386;8.688;2023-08-17T08:51:16;20.90;77.70
24217;DHT22;12356;49.386;8.688;2023-08-17T08:54:03;20.90;78.70
24217;DHT22;12356;49.386;8.688;2023-08-17T08:56:35;21.00;77.70
24217;DHT22;12356;49.386;8.688;2023-08-17T08:59:08;21.00;75.80
24217;DHT22;12356;49.386;8.688;2023-08-17T09:01:40;21.10;76.70
24217;DHT22;12356;49.386;8.688;2023-08-17T09:04:10;21.20;77.00
24217;DHT22;12356;49.386;8.688;2023-08-17T09:06:42;21.20;72.80
24217;DHT22;12356;49.386;8.688;2023-08-17T09:09:15;21.20;73.30
24217;DHT22;12356;49.386;8.688;2023-08-17T09:11:47;21.30;75.00
24217;DHT22;12356;49.386;8.688;2023-08-17T09:14:17;21.40;76.80
24217;DHT22;12356;49.386;8.688;2023-08-17T09:16:48;21.40;75.20
24217;DHT22;12356;49.386;8.688;2023-08-17T09:19:18;21.50;74.20
24217;DHT22;12356;49.386;8.688;2023-08-17T09:21:50;21.50;72.30
24217;DHT22;12356;49.386;8.688;2023-08-17T09:24:20;21.60;72.40
24217;DHT22;12356;49.386;8.688;2023-08-17T09:26:51;21.70;73.50
24217;DHT22;12356;49.386;8.688;2023-08-17T09:29:22;21.70;72.30
24217;DHT22;12356;49.386;8.688;2023-08-17T09:31:53;21.80;71.50
24217;DHT22;12356;49.386;8.688;2023-08-17T09:34:23;21.80;72.00
24217;DHT22;12356;49.386;8.688;2023-08-17T09:36:54;21.90;70.80
24217;DHT22;12356;49.386;8.688;2023-08-17T09:39:25;21.90;73.80
24217;DHT22;12356;49.386;8.688;2023-08-17T09:41:55;22.00;72.70
24217;DHT22;12356;49.386;8.688;2023-08-17T09:44:27;22.10;72.50
24217;DHT22;12356;49.386;8.688;2023-08-17T09:46:58;22.10;72.50
24217;DHT22;12356;49.386;8.688;2023-08-17T09:49:31;22.20;71.80
24217;DHT22;12356;49.386;8.688;2023-08-17T09:52:03;22.20;71.20
24217;DHT22;12356;49.386;8.688;2023-08-17T09:54:34;22.30;72.60
24217;DHT22;12356;49.386;8.688;2023-08-17T09:57:05;22.40;73.30
24217;DHT22;12356;49.386;8.688;2023-08-17T09:59:36;22.40;72.70
24217;DHT22;12356;49.386;8.688;2023-08-17T10:02:26;22.50;71.20
24217;DHT22;12356;49.386;8.688;2023-08-17T10:04:58;22.60;69.00
24217;DHT22;12356;49.386;8.688;2023-08-17T10:07:30;22.60;67.90
24217;DHT22;12356;49.386;8.688;2023-08-17T10:10:05;22.60;67.30
24217;DHT22;12356;49.386;8.688;2023-08-17T10:12:37;22.70;67.50
24217;DHT22;12356;49.386;8.688;2023-08-17T10:15:15;22.70;68.60
24217;DHT22;12356;49.386;8.688;2023-08-17T10:17:55;22.70;64.40
24217;DHT22;12356;49.386;8.688;2023-08-17T10:20:29;22.80;64.80
24217;DHT22;12356;49.386;8.688;2023-08-17T10:25:34;22.80;64.50
24217;DHT22;12356;49.386;8.688;2023-08-17T10:28:06;22.90;65.40
24217;DHT22;12356;49.386;8.688;2023-08-17T10:30:38;22.90;65.80
24217;DHT22;12356;49.386;8.688;2023-08-17T10:33:09;23.00;64.70
24217;DHT22;12356;49.386;8.688;2023-08-17T10:35:41;23.10;64.80
24217;DHT22;12356;49.386;8.688;2023-08-17T10:38:12;23.10;65.20
24217;DHT22;12356;49.386;8.688;2023-08-17T10:40:42;23.10;64.80
24217;DHT22;12356;49.386;8.688;2023-08-17T10:43:13;23.20;65.70
24217;DHT22;12356;49.386;8.688;2023-08-17T10:45:44;23.20;64.60
24217;DHT22;12356;49.386;8.688;2023-08-17T10:48:24;23.20;64.50
24217;DHT22;12356;49.386;8.688;2023-08-17T10:51:00;23.30;64.40
24217;DHT22;12356;49.386;8.688;2023-08-17T10:53:35;23.30;64.00
24217;DHT22;12356;49.386;8.688;2023-08-17T10:56:12;23.30;64.90
24217;DHT22;12356;49.386;8.688;2023-08-17T10:58:43;23.40;64.70
24217;DHT22;12356;49.386;8.688;2023-08-17T11:01:39;23.50;63.60
24217;DHT22;12356;49.386;8.688;2023-08-17T11:04:16;23.60;63.40
24217;DHT22;12356;49.386;8.688;2023-08-17T11:07:01;23.60;64.10
24217;DHT22;12356;49.386;8.688;2023-08-17T11:09:35;23.70;62.90
24217;DHT22;12356;49.386;8.688;2023-08-17T11:12:05;23.70;62.00
24217;DHT22;12356;49.386;8.688;2023-08-17T11:14:36;23.70;63.80
24217;DHT22;12356;49.386;8.688;2023-08-17T11:17:09;23.80;62.50
24217;DHT22;12356;49.386;8.688;2023-08-17T11:19:40;23.80;61.80
24217;DHT22;12356;49.386;8.688;2023-08-17T11:22:11;23.80;61.50
24217;DHT22;12356;49.386;8.688;2023-08-17T11:24:41;23.80;61.10
24217;DHT22;12356;49.386;8.688;2023-08-17T11:27:14;23.90;60.40
24217;DHT22;12356;49.386;8.688;2023-08-17T11:29:45;23.90;58.10
24217;DHT22;12356;49.386;8.688;2023-08-17T11:32:18;24.00;59.30
24217;DHT22;12356;49.386;8.688;2023-08-17T11:34:49;24.00;59.90
24217;DHT22;12356;49.386;8.688;2023-08-17T11:37:21;24.10;60.10
24217;DHT22;12356;49.386;8.688;2023-08-17T11:39:51;24.10;60.50
24217;DHT22;12356;49.386;8.688;2023-08-17T11:42:22;24.10;59.20
24217;DHT22;12356;49.386;8.688;2023-08-17T11:44:53;24.20;58.80
24217;DHT22;12356;49.386;8.688;2023-08-17T11:47:23;24.30;57.80
24217;DHT22;12356;49.386;8.688;2023-08-17T11:49:59;24.20;58.80
24217;DHT22;12356;49.386;8.688;2023-08-17T11:52:31;24.30;58.50
24217;DHT22;12356;49.386;8.688;2023-08-17T11:55:04;24.30;59.70
24217;DHT22;12356;49.386;8.688;2023-08-17T11:57:36;24.40;56.40
24217;DHT22;12356;49.386;8.688;2023-08-17T12:00:07;24.50;58.80
24217;DHT22;12356;49.386;8.688;2023-08-17T12:02:41;24.60;56.20
24217;DHT22;12356;49.386;8.688;2023-08-17T12:05:13;24.60;59.50
24217;DHT22;12356;49.386;8.688;2023-08-17T12:07:45;24.60;57.60
24217;DHT22;12356;49.386;8.688;2023-08-17T12:10:17;24.60;56.70
24217;DHT22;12356;49.386;8.688;2023-08-17T12:12:48;24.60;56.40
24217;DHT22;12356;49.386;8.688;2023-08-17T12:15:19;24.60;57.30
24217;DHT22;12356;49.386;8.688;2023-08-17T12:17:50;24.60;56.20
24217;DHT22;12356;49.386;8.688;2023-08-17T12:20:23;24.60;58.00
24217;DHT22;12356;49.386;8.688;2023-08-17T12:22:53;24.60;55.90
24217;DHT22;12356;49.386;8.688;2023-08-17T12:25:25;24.50;55.50
24217;DHT22;12356;49.386;8.688;2023-08-17T12:28:00;24.50;57.70
24217;DHT22;12356;49.386;8.688;2023-08-17T12:30:32;24.50;58.70
24217;DHT22;12356;49.386;8.688;2023-08-17T12:33:03;24.40;56.90
24217;DHT22;12356;49.386;8.688;2023-08-17T12:35:34;24.50;54.50
24217;DHT22;12356;49.386;8.688;2023-08-17T12:38:04;24.50;54.60
24217;DHT22;12356;49.386;8.688;2023-08-17T12:40:35;24.50;54.70
24217;DHT22;12356;49.386;8.688;2023-08-17T12:43:05;24.50;54.60
24217;DHT22;12356;49.386;8.688;2023-08-17T12:45:36;24.40;55.10
24217;DHT22;12356;49.386;8.688;2023-08-17T12:48:06;24.50;53.90
24217;DHT22;12356;49.386;8.688;2023-08-17T12:50:37;24.50;54.50
24217;DHT22;12356;49.386;8.688;2023-08-17T12:53:07;24.40;54.60
24217;DHT22;12356;49.386;8.688;2023-08-17T12:55:38;24.40;52.80
24217;DHT22;12356;49.386;8.688;2023-08-17T12:58:09;24.40;52.80
24217;DHT22;12356;49.386;8.688;2023-08-17T13:00:42;24.40;52.20
24217;DHT22;12356;49.386;8.688;2023-08-17T13:03:13;24.50;53.00
24217;DHT22;12356;49.386;8.688;2023-08-17T13:05:43;24.50;53.60
24217;DHT22;12356;49.386;8.688;2023-08-17T13:08:14;24.50;54.40
24217;DHT22;12356;49.386;8.688;2023-08-17T13:10:45;24.60;55.10
24217;DHT22;12356;49.386;8.688;2023-08-17T13:13:15;24.60;54.90
24217;DHT22;12356;49.386;8.688;2023-08-17T13:15:46;24.70;56.10
24217;DHT22;12356;49.386;8.688;2023-08-17T13:18:16;24.80;56.40
24217;DHT22;12356;49.386;8.688;2023-08-17T13:20:47;24.80;53.30
24217;DHT22;12356;49.386;8.688;2023-08-17T13:23:17;24.80;53.80
24217;DHT22;12356;49.386;8.688;2023-08-17T13:25:48;24.80;53.90
24217;DHT22;12356;49.386;8.688;2023-08-17T13:28:18;24.90;53.40
24217;DHT22;12356;49.386;8.688;2023-08-17T13:30:49;24.90;53.40
24217;DHT22;12356;49.386;8.688;2023-08-17T13:33:20;24.90;53.40
24217;DHT22;12356;49.386;8.688;2023-08-17T13:35:50;24.90;53.90
24217;DHT22;12356;49.386;8.688;2023-08-17T13:38:21;24.90;54.90
24217;DHT22;12356;49.386;8.688;2023-08-17T13:40:52;24.90;53.40
24217;DHT22;12356;49.386;8.688;2023-08-17T13:43:22;24.90;54.30
24217;DHT22;12356;49.386;8.688;2023-08-17T13:45:53;24.90;55.00
24217;DHT22;12356;49.386;8.688;2023-08-17T13:48:23;24.80;55.60
24217;DHT22;12356;49.386;8.688;2023-08-17T13:50:54;24.80;55.10
24217;DHT22;12356;49.386;8.688;2023-08-17T13:53:24;24.80;55.00
24217;DHT22;12356;49.386;8.688;2023-08-17T13:55:55;24.80;55.90
24217;DHT22;12356;49.386;8.688;2023-08-17T13:58:25;24.80;58.10
24217;DHT22;12356;49.386;8.688;2023-08-17T14:00:56;24.90;57.50
24217;DHT22;12356;49.386;8.688;2023-08-17T14:03:27;24.90;58.80
24217;DHT22;12356;49.386;8.688;2023-08-17T14:05:57;24.90;57.50
24217;DHT22;12356;49.386;8.688;2023-08-17T14:08:28;25.00;58.00
24217;DHT22;12356;49.386;8.688;2023-08-17T14:10:58;25.00;56.40
24217;DHT22;12356;49.386;8.688;2023-08-17T14:13:30;25.00;57.20
24217;DHT22;12356;49.386;8.688;2023-08-17T14:16:01;25.00;57.70
24217;DHT22;12356;49.386;8.688;2023-08-17T14:18:31;25.00;54.80
24217;DHT22;12356;49.386;8.688;2023-08-17T14:21:02;25.00;53.50
24217;DHT22;12356;49.386;8.688;2023-08-17T14:23:32;25.10;55.30
24217;DHT22;12356;49.386;8.688;2023-08-17T14:26:03;25.10;55.90
24217;DHT22;12356;49.386;8.688;2023-08-17T14:28:33;25.10;54.60
24217;DHT22;12356;49.386;8.688;2023-08-17T14:31:04;25.20;55.50
24217;DHT22;12356;49.386;8.688;2023-08-17T14:33:34;25.30;55.60
24217;DHT22;12356;49.386;8.688;2023-08-17T14:36:05;25.30;56.90
24217;DHT22;12356;49.386;8.688;2023-08-17T14:38:35;25.40;57.90
24217;DHT22;12356;49.386;8.688;2023-08-17T14:41:06;25.40;59.60
24217;DHT22;12356;49.386;8.688;2023-08-17T14:43:38;25.40;55.80
24217;DHT22;12356;49.386;8.688;2023-08-17T14:46:09;25.40;55.90
24217;DHT22;12356;49.386;8.688;2023-08-17T14:48:39;25.50;57.50
24217;DHT22;12356;49.386;8.688;2023-08-17T14:51:10;25.40;57.30
24217;DHT22;12356;49.386;8.688;2023-08-17T14:53:40;25.40;54.50
24217;DHT22;12356;49.386;8.688;2023-08-17T14:56:11;25.40;55.70
24217;DHT22;12356;49.386;8.688;2023-08-17T14:58:42;25.50;51.70
24217;DHT22;12356;49.386;8.688;2023-08-17T15:01:12;25.50;51.50
24217;DHT22;12356;49.386;8.688;2023-08-17T15:03:43;25.60;49.40
24217;DHT22;12356;49.386;8.688;2023-08-17T15:06:13;25.60;49.30
24217;DHT22;12356;49.386;8.688;2023-08-17T15:08:44;25.60;47.70
24217;DHT22;12356;49.386;8.688;2023-08-17T15:11:14;25.60;46.80
24217;DHT22;12356;49.386;8.688;2023-08-17T15:13:45;25.60;47.90
24217;DHT22;12356;49.386;8.688;2023-08-17T15:16:15;25.60;49.60
24217;DHT22;12356;49.386;8.688;2023-08-17T15:18:46;25.70;49.30
24217;DHT22;12356;49.386;8.688;2023-08-17T15:21:16;25.70;47.70
24217;DHT22;12356;49.386;8.688;2023-08-17T15:23:47;25.60;47.50
24217;DHT22;12356;49.386;8.688;2023-08-17T15:26:17;25.70;49.40
24217;DHT22;12356;49.386;8.688;2023-08-17T15:28:48;25.70;49.30
24217;DHT22;12356;49.386;8.688;2023-08-17T15:31:19;25.80;49.60
24217;DHT22;12356;49.386;8.688;2023-08-17T15:33:49;25.80;51.40
24217;DHT22;12356;49.386;8.688;2023-08-17T15:36:20;25.80;50.40
24217;DHT22;12356;49.386;8.688;2023-08-17T15:38:54;25.80;50.60
24217;DHT22;12356;49.386;8.688;2023-08-17T15:41:24;25.90;45.50
24217;DHT22;12356;49.386;8.688;2023-08-17T15:43:55;25.80;46.60
24217;DHT22;12356;49.386;8.688;2023-08-17T15:46:25;25.90;47.70
24217;DHT22;12356;49.386;8.688;2023-08-17T15:48:56;25.90;50.10
24217;DHT22;12356;49.386;8.688;2023-08-17T15:51:27;25.90;38.20
24217;DHT22;12356;49.386;8.688;2023-08-17T15:53:58;25.90;34.70
24217;DHT22;12356;49.386;8.688;2023-08-17T15:56:28;26.00;34.50
24217;DHT22;12356;49.386;8.688;2023-08-17T15:58:59;25.90;38.90
24217;DHT22;12356;49.386;8.688;2023-08-17T16:01:29;25.90;36.60
24217;DHT22;12356;49.386;8.688;2023-08-17T16:04:01;25.90;35.80